createdAt,value
2023-03-01T00:04:50.991Z,6.73
2023-03-01T00:09:55.582Z,7.27
2023-03-01T00:14:58.705Z,7.40
2023-03-01T00:20:02.003Z,7.97
2023-03-01T00:25:07.088Z,8.30
2023-03-01T00:30:11.656Z,8.47
2023-03-01T00:35:15.134Z,7.47
2023-03-01T00:40:19.848Z,7.33
2023-03-01T00:45:23.520Z,7.93
2023-03-01T00:50:26.940Z,7.13
2023-03-01T00:55:31.714Z,7.17
2023-03-01T01:00:35.453Z,8.60
2023-03-01T01:05:38.778Z,7.80
2023-03-01T01:10:46.078Z,8.07
2023-03-01T01:15:49.581Z,8.00
2023-03-01T01:20:52.908Z,9.20
2023-03-01T01:25:57.550Z,8.70
2023-03-01T01:31:01.100Z,7.90
2023-03-01T01:36:04.801Z,8.93
2023-03-01T01:41:09.700Z,7.37
2023-03-01T01:46:23.769Z,8.30
2023-03-01T01:51:39.071Z,7.57
2023-03-01T01:56:50.394Z,7.10
2023-03-01T02:01:54.288Z,7.33
2023-03-01T02:07:03.611Z,8.07
2023-03-01T02:12:09.026Z,7.67
2023-03-01T02:17:14.019Z,9.73
2023-03-01T02:22:24.717Z,8.47
2023-03-01T02:27:35.733Z,8.10
2023-03-01T02:32:42.689Z,7.40
2023-03-01T02:37:46.575Z,7.73
2023-03-01T02:42:54.767Z,8.00
2023-03-01T02:48:00.099Z,8.10
2023-03-01T02:53:10.230Z,8.10
2023-03-01T02:58:13.708Z,8.10
2023-03-01T03:03:21.267Z,7.70
2023-03-01T03:08:25.299Z,7.30
2023-03-01T03:13:29.545Z,6.70
2023-03-01T03:18:34.272Z,8.17
2023-03-01T03:23:37.465Z,8.30
2023-03-01T03:28:41.137Z,8.03
2023-03-01T03:33:45.846Z,8.30
2023-03-01T03:38:49.856Z,6.70
2023-03-01T03:43:53.260Z,7.67
2023-03-01T03:48:57.934Z,8.20
2023-03-01T03:54:01.260Z,8.07
2023-03-01T03:59:04.696Z,7.17
2023-03-01T04:04:09.330Z,7.30
2023-03-01T04:09:13.091Z,8.10
2023-03-01T04:14:16.190Z,7.43
2023-03-01T04:19:20.761Z,8.17
2023-03-01T04:24:24.063Z,7.80
2023-03-01T04:29:27.295Z,6.97
2023-03-01T04:34:31.942Z,7.83
2023-03-01T04:39:35.318Z,7.67
2023-03-01T04:44:38.513Z,7.97
2023-03-01T04:49:43.239Z,8.80
2023-03-01T04:54:47.029Z,9.00
2023-03-01T04:59:50.403Z,6.93
2023-03-01T05:04:58.633Z,8.73
2023-03-01T05:10:02.333Z,9.67
2023-03-01T05:15:08.062Z,8.63
2023-03-01T05:20:13.721Z,9.53
2023-03-01T05:25:17.752Z,9.40
2023-03-01T05:30:22.825Z,8.93
2023-03-01T05:35:28.005Z,9.07
2023-03-01T05:40:31.268Z,8.83
2023-03-01T05:45:34.613Z,8.27
2023-03-01T05:50:41.214Z,9.23
2023-03-01T05:55:47.198Z,10.50
2023-03-01T06:00:52.851Z,7.80
2023-03-01T06:05:59.707Z,8.27
2023-03-01T06:11:03.143Z,8.83
2023-03-01T06:16:08.023Z,9.43
2023-03-01T06:21:12.972Z,10.80
2023-03-01T06:26:16.114Z,9.50
2023-03-01T06:31:19.455Z,8.40
2023-03-01T06:36:24.075Z,9.30
2023-03-01T06:41:28.999Z,9.30
2023-03-01T06:46:32.948Z,8.73
2023-03-01T06:51:38.771Z,9.40
2023-03-01T06:56:42.290Z,10.20
2023-03-01T07:01:45.523Z,9.03
2023-03-01T07:06:56.171Z,10.97
2023-03-01T07:11:59.791Z,11.33
2023-03-01T07:17:03.272Z,12.10
2023-03-01T07:22:08.977Z,10.57
2023-03-01T07:27:12.406Z,11.03
2023-03-01T07:32:15.605Z,11.50
2023-03-01T07:37:20.144Z,11.27
2023-03-01T07:42:23.359Z,13.13
2023-03-01T07:47:26.698Z,11.00
2023-03-01T07:52:31.744Z,12.63
2023-03-01T07:57:34.917Z,9.80
2023-03-01T08:02:38.192Z,10.07
2023-03-01T08:07:42.961Z,11.87
2023-03-01T08:12:46.065Z,11.90
2023-03-01T08:17:52.164Z,12.10
2023-03-01T08:22:56.737Z,13.07
2023-03-01T08:28:00.011Z,12.40
2023-03-01T08:33:03.454Z,12.27
2023-03-01T08:38:08.070Z,11.47
2023-03-01T08:43:11.514Z,12.50
2023-03-01T08:48:14.618Z,11.67
2023-03-01T08:53:19.138Z,12.30
2023-03-01T08:58:22.413Z,11.10
2023-03-01T09:03:26.250Z,11.03
2023-03-01T09:08:31.415Z,10.93
2023-03-01T09:13:34.758Z,11.27
2023-03-01T09:18:38.188Z,11.57
2023-03-01T09:23:44.346Z,10.93
2023-03-01T09:28:47.782Z,11.30
2023-03-01T09:33:53.028Z,10.40
2023-03-01T09:38:57.478Z,17.40
2023-03-01T09:44:05.886Z,13.87
2023-03-01T09:49:19.274Z,19.10
2023-03-01T09:54:24.852Z,13.90
2023-03-01T09:59:34.106Z,11.40
2023-03-01T10:04:47.015Z,11.90
2023-03-01T10:09:52.038Z,11.10
2023-03-01T10:15:03.552Z,11.43
2023-03-01T10:20:19.146Z,11.67
2023-03-01T10:25:47.103Z,9.90
2023-03-01T10:30:52.612Z,10.53
2023-03-01T10:35:56.033Z,13.53
2023-03-01T10:41:06.515Z,11.70
2023-03-01T10:46:25.084Z,11.10
2023-03-01T10:51:28.509Z,14.40
2023-03-01T10:56:49.655Z,13.33
2023-03-01T11:02:24.918Z,12.63
2023-03-01T11:07:29.074Z,12.00
2023-03-01T11:12:34.494Z,10.20
2023-03-01T11:17:53.620Z,11.33
2023-03-01T11:23:02.366Z,11.13
2023-03-01T11:28:09.615Z,13.53
2023-03-01T11:33:20.751Z,15.07
2023-03-01T11:38:26.918Z,11.00
2023-03-01T11:43:38.198Z,10.83
2023-03-01T11:48:54.053Z,9.83
2023-03-01T11:54:08.476Z,15.57
2023-03-01T11:59:42.139Z,9.23
2023-03-01T12:05:05.120Z,11.30
2023-03-01T12:10:28.179Z,10.50
2023-03-01T12:15:45.283Z,11.60
2023-03-01T12:20:55.863Z,10.67
2023-03-01T12:26:04.889Z,12.57
2023-03-01T12:31:36.268Z,11.77
2023-03-01T12:36:53.286Z,11.07
2023-03-01T12:42:06.684Z,11.53
2023-03-01T12:47:25.469Z,11.20
2023-03-01T12:52:41.046Z,13.40
2023-03-01T12:57:52.404Z,13.67
2023-03-01T13:03:06.873Z,17.20
2023-03-01T13:08:19.032Z,10.00
2023-03-01T13:13:24.158Z,11.37
2023-03-01T13:18:34.242Z,13.57
2023-03-01T13:23:39.796Z,18.60
2023-03-01T13:28:56.862Z,11.83
2023-03-01T13:34:02.019Z,10.13
2023-03-01T13:39:06.609Z,11.27
2023-03-01T13:44:15.024Z,11.53
2023-03-01T13:49:23.708Z,14.00
2023-03-01T13:54:32.804Z,9.90
2023-03-01T13:59:49.062Z,11.30
2023-03-01T14:05:00.668Z,14.40
2023-03-01T14:10:06.434Z,14.37
2023-03-01T14:15:20.262Z,17.80
2023-03-01T14:20:28.333Z,21.40
2023-03-01T14:25:34.031Z,15.47
2023-03-01T14:30:41.115Z,11.50
2023-03-01T14:35:55.496Z,12.60
2023-03-01T14:41:05.068Z,9.10
2023-03-01T14:46:21.676Z,9.53
2023-03-01T14:51:26.920Z,8.50
2023-03-01T14:56:46.284Z,12.90
2023-03-01T15:01:50.277Z,13.03
2023-03-01T15:06:56.182Z,15.33
2023-03-01T15:11:59.364Z,9.50
2023-03-01T15:17:02.864Z,8.50
2023-03-01T15:22:13.777Z,18.13
2023-03-01T15:27:19.669Z,12.20
2023-03-01T15:32:29.177Z,9.73
2023-03-01T15:37:45.834Z,9.10
2023-03-01T15:42:49.000Z,9.43
2023-03-01T15:47:54.214Z,8.83
2023-03-01T15:53:00.825Z,12.03
2023-03-01T15:58:08.253Z,8.10
2023-03-01T16:03:13.228Z,10.63
2023-03-01T16:08:18.488Z,17.13
2023-03-01T16:13:21.600Z,16.67
2023-03-01T16:18:24.853Z,14.60
2023-03-01T16:23:29.538Z,17.07
2023-03-01T16:28:33.001Z,31.07
2023-03-01T16:33:36.251Z,19.23
2023-03-01T16:38:40.883Z,9.33
2023-03-01T16:43:44.180Z,10.30
2023-03-01T16:48:48.738Z,15.00
2023-03-01T16:53:53.962Z,12.30
2023-03-01T16:58:57.715Z,11.70
2023-03-01T17:04:02.037Z,9.90
2023-03-01T17:09:07.158Z,9.13
2023-03-01T17:14:10.890Z,8.10
2023-03-01T17:19:18.778Z,9.43
2023-03-01T17:24:23.549Z,7.47
2023-03-01T17:29:26.822Z,7.57
2023-03-01T17:34:30.117Z,8.23
2023-03-01T17:39:36.445Z,8.70
2023-03-01T17:44:41.373Z,7.70
2023-03-01T17:49:45.617Z,7.27
2023-03-01T17:54:50.469Z,9.20
2023-03-01T17:59:53.799Z,8.57
2023-03-01T18:04:59.208Z,7.03
2023-03-01T18:10:04.788Z,7.70
2023-03-01T18:15:09.460Z,6.90
2023-03-01T18:20:15.503Z,7.53
2023-03-01T18:25:20.355Z,8.50
2023-03-01T18:30:23.961Z,8.00
2023-03-01T18:35:27.324Z,8.60
2023-03-01T18:40:32.847Z,8.20
2023-03-01T18:45:36.509Z,8.83
2023-03-01T18:50:40.151Z,8.17
2023-03-01T18:55:44.836Z,10.00
2023-03-01T19:00:48.212Z,9.10
2023-03-01T19:05:51.693Z,9.80
2023-03-01T19:11:01.638Z,9.87
2023-03-01T19:16:06.180Z,11.30
2023-03-01T19:21:12.088Z,13.40
2023-03-01T19:26:19.943Z,12.63
2023-03-01T19:31:28.186Z,14.10
2023-03-01T19:36:34.168Z,14.40
2023-03-01T19:41:39.415Z,14.30
2023-03-01T19:46:43.435Z,14.23
2023-03-01T19:51:47.303Z,13.77
2023-03-01T19:56:52.150Z,12.80
2023-03-01T20:01:56.099Z,13.50
2023-03-01T20:06:59.419Z,13.13
2023-03-01T20:12:04.900Z,12.97
2023-03-01T20:17:08.156Z,12.77
2023-03-01T20:22:14.953Z,14.53
2023-03-01T20:27:19.557Z,12.93
2023-03-01T20:32:23.154Z,14.23
2023-03-01T20:37:26.900Z,14.83
2023-03-01T20:42:32.077Z,12.50
2023-03-01T20:47:35.389Z,12.70
2023-03-01T20:52:47.048Z,13.67
2023-03-01T20:57:52.453Z,13.03
2023-03-01T21:02:55.682Z,12.50
2023-03-01T21:08:02.483Z,13.30
2023-03-01T21:13:07.333Z,13.87
2023-03-01T21:18:10.661Z,12.37
2023-03-01T21:23:13.855Z,12.47
2023-03-01T21:28:18.560Z,12.20
2023-03-01T21:33:22.046Z,11.40
2023-03-01T21:38:25.417Z,12.30
2023-03-01T21:43:30.134Z,12.60
2023-03-01T21:48:34.066Z,12.03
2023-03-01T21:53:38.134Z,11.13
2023-03-01T21:58:42.919Z,11.40
2023-03-01T22:03:46.789Z,11.00
2023-03-01T22:08:52.096Z,12.10
2023-03-01T22:13:57.748Z,10.17
2023-03-01T22:19:01.448Z,9.83
2023-03-01T22:24:05.275Z,11.17
2023-03-01T22:29:13.183Z,9.20
2023-03-01T22:34:17.263Z,10.23
2023-03-01T22:39:21.990Z,9.80
2023-03-01T22:44:26.498Z,11.63
2023-03-01T22:49:31.069Z,10.70
2023-03-01T22:54:34.359Z,11.47
2023-03-01T22:59:38.993Z,10.73
2023-03-01T23:04:43.929Z,11.00
2023-03-01T23:09:47.824Z,11.87
2023-03-01T23:14:53.900Z,11.20
2023-03-01T23:19:57.112Z,10.97
2023-03-01T23:25:00.345Z,9.80
2023-03-01T23:30:05.425Z,10.77
2023-03-01T23:35:10.666Z,10.50
2023-03-01T23:40:14.797Z,10.77
2023-03-01T23:45:19.912Z,9.07
2023-03-01T23:50:24.332Z,10.07
2023-03-01T23:55:29.691Z,8.83
